createdAt,value
2018-03-04T00:01:02.617Z,12.20
2018-03-04T00:03:30.392Z,12.20
2018-03-04T00:05:58.194Z,12.30
2018-03-04T00:08:25.956Z,12.30
2018-03-04T00:10:53.792Z,12.40
2018-03-04T00:13:21.564Z,12.50
2018-03-04T00:15:50.102Z,12.60
2018-03-04T00:18:17.888Z,12.60
2018-03-04T00:20:45.656Z,12.50
2018-03-04T00:23:13.459Z,12.50
2018-03-04T00:25:42.012Z,12.60
2018-03-04T00:28:09.772Z,12.50
2018-03-04T00:30:37.560Z,12.60
2018-03-04T00:33:06.126Z,12.60
2018-03-04T00:35:34.677Z,12.70
2018-03-04T00:38:02.478Z,12.70
2018-03-04T00:40:30.283Z,12.70
2018-03-04T00:42:58.087Z,12.80
2018-03-04T00:45:25.868Z,12.90
2018-03-04T00:47:54.441Z,13.10
2018-03-04T00:50:22.275Z,13.10
2018-03-04T00:52:50.068Z,13.20
2018-03-04T00:55:17.924Z,13.20
2018-03-04T00:57:45.785Z,13.30
2018-03-04T01:00:13.580Z,13.30
2018-03-04T01:02:42.172Z,13.30
2018-03-04T01:05:10.736Z,13.30
2018-03-04T01:07:38.551Z,13.30
2018-03-04T01:10:06.383Z,13.30
2018-03-04T01:12:35.020Z,13.30
2018-03-04T01:15:03.605Z,13.20
2018-03-04T01:17:31.405Z,13.20
2018-03-04T01:19:59.181Z,13.30
2018-03-04T01:22:27.848Z,13.20
2018-03-04T01:24:55.655Z,13.20
2018-03-04T01:27:23.427Z,13.20
2018-03-04T01:29:51.228Z,13.20
2018-03-04T01:32:19.052Z,13.20
2018-03-04T01:34:46.895Z,13.10
2018-03-04T01:37:15.500Z,13.00
2018-03-04T01:39:43.282Z,13.00
2018-03-04T01:42:11.159Z,12.90
2018-03-04T01:44:38.981Z,12.90
2018-03-04T01:47:06.852Z,12.80
2018-03-04T01:49:34.680Z,12.80
2018-03-04T01:52:02.459Z,12.70
2018-03-04T01:54:31.006Z,12.60
2018-03-04T01:56:58.813Z,12.60
2018-03-04T01:59:27.420Z,12.50
2018-03-04T02:01:55.262Z,12.50
2018-03-04T02:04:23.804Z,12.30
2018-03-04T02:06:51.631Z,12.30
2018-03-04T02:09:19.638Z,12.30
2018-03-04T02:11:47.437Z,12.20
2018-03-04T02:14:15.992Z,12.10
2018-03-04T02:16:43.815Z,12.00
2018-03-04T02:19:11.658Z,12.00
2018-03-04T02:21:39.467Z,11.90
2018-03-04T02:24:07.372Z,11.90
2018-03-04T02:26:35.980Z,11.90
2018-03-04T02:29:03.799Z,11.90
2018-03-04T02:31:31.592Z,11.90
2018-03-04T02:33:59.384Z,11.90
2018-03-04T02:36:27.176Z,12.00
2018-03-04T02:38:55.011Z,12.00
2018-03-04T02:41:22.928Z,12.00
2018-03-04T02:43:50.748Z,12.00
2018-03-04T02:46:18.521Z,12.00
2018-03-04T02:48:46.344Z,12.00
2018-03-04T02:51:14.895Z,12.00
2018-03-04T02:53:42.719Z,12.00
2018-03-04T02:56:10.507Z,11.90
2018-03-04T02:58:38.332Z,11.80
2018-03-04T03:01:06.164Z,11.70
2018-03-04T03:03:33.955Z,11.70
2018-03-04T03:06:02.519Z,11.50
2018-03-04T03:08:31.141Z,11.40
2018-03-04T03:10:59.047Z,11.50
2018-03-04T03:13:26.858Z,11.40
2018-03-04T03:15:54.684Z,11.30
2018-03-04T03:18:22.508Z,11.30
2018-03-04T03:20:50.284Z,11.20
2018-03-04T03:23:18.172Z,11.20
2018-03-04T03:25:46.039Z,11.20
2018-03-04T03:28:14.644Z,11.10
2018-03-04T03:30:42.460Z,11.10
2018-03-04T03:33:10.254Z,11.10
2018-03-04T03:35:38.052Z,11.00
2018-03-04T03:38:06.604Z,11.00
2018-03-04T03:40:34.413Z,11.00
2018-03-04T03:43:02.241Z,11.00
2018-03-04T03:45:30.048Z,11.10
2018-03-04T03:47:57.808Z,11.10
2018-03-04T03:50:25.628Z,11.10
2018-03-04T03:52:53.430Z,11.20
2018-03-04T03:55:21.215Z,11.20
2018-03-04T03:57:49.052Z,11.20
2018-03-04T04:00:17.598Z,11.20
2018-03-04T04:02:45.390Z,11.20
2018-03-04T04:05:14.041Z,11.30
2018-03-04T04:07:41.839Z,11.20
2018-03-04T04:10:10.397Z,11.20
2018-03-04T04:12:38.180Z,11.20
2018-03-04T04:15:06.763Z,11.20
2018-03-04T04:17:35.332Z,11.30
2018-03-04T04:20:03.157Z,11.30
2018-03-04T04:22:30.960Z,11.30
2018-03-04T04:24:58.774Z,11.30
2018-03-04T04:27:26.586Z,11.30
2018-03-04T04:29:54.383Z,11.30
2018-03-04T04:32:22.951Z,11.30
2018-03-04T04:34:51.540Z,11.20
2018-03-04T04:37:20.139Z,11.10
2018-03-04T04:39:47.920Z,11.10
2018-03-04T04:42:15.717Z,11.10
2018-03-04T04:44:43.555Z,11.00
2018-03-04T04:47:11.353Z,10.90
2018-03-04T04:49:39.160Z,10.80
2018-03-04T04:52:07.111Z,10.80
2018-03-04T04:54:35.682Z,10.70
2018-03-04T04:57:03.513Z,10.70
2018-03-04T04:59:31.319Z,10.70
2018-03-04T05:02:29.265Z,10.70
2018-03-04T05:04:57.076Z,10.70
2018-03-04T05:07:24.881Z,10.80
2018-03-04T05:09:52.661Z,10.80
2018-03-04T05:12:21.243Z,10.80
2018-03-04T05:14:49.039Z,10.80
2018-03-04T05:17:17.573Z,10.90
2018-03-04T05:19:45.414Z,10.90
2018-03-04T05:22:13.225Z,10.90
2018-03-04T05:24:41.036Z,10.90
2018-03-04T05:27:09.652Z,10.80
2018-03-04T05:29:37.464Z,10.80
2018-03-04T05:32:06.037Z,10.70
2018-03-04T05:34:34.604Z,10.70
2018-03-04T05:37:02.431Z,10.70
2018-03-04T05:39:30.219Z,10.70
2018-03-04T05:41:58.095Z,10.70
2018-03-04T05:44:25.920Z,10.70
2018-03-04T05:46:54.550Z,10.70
2018-03-04T05:49:22.355Z,10.70
2018-03-04T05:51:50.204Z,10.80
2018-03-04T05:54:18.807Z,10.90
2018-03-04T05:56:46.578Z,10.90
2018-03-04T05:59:14.380Z,10.90
2018-03-04T06:01:42.189Z,11.00
2018-03-04T06:04:09.999Z,11.10
2018-03-04T06:06:38.596Z,11.20
2018-03-04T06:09:06.397Z,11.20
2018-03-04T06:11:34.967Z,11.30
2018-03-04T06:14:03.553Z,11.40
2018-03-04T06:16:32.155Z,11.50
2018-03-04T06:18:59.947Z,11.50
2018-03-04T06:21:27.746Z,11.60
2018-03-04T06:23:55.612Z,11.70
2018-03-04T06:26:23.487Z,11.80
2018-03-04T06:28:52.038Z,12.00
2018-03-04T06:31:19.860Z,12.00
2018-03-04T06:33:47.652Z,12.10
2018-03-04T06:36:15.494Z,12.10
2018-03-04T06:38:43.334Z,12.30
2018-03-04T06:41:11.898Z,12.60
2018-03-04T06:43:39.717Z,12.60
2018-03-04T06:46:07.518Z,12.70
2018-03-04T06:48:35.288Z,12.80
2018-03-04T06:51:03.096Z,13.10
2018-03-04T06:53:30.864Z,13.40
2018-03-04T06:55:58.661Z,13.80
2018-03-04T06:58:26.468Z,14.50
2018-03-04T07:00:55.030Z,17.80
2018-03-04T07:03:22.844Z,17.80
2018-03-04T07:05:50.650Z,19.30
2018-03-04T07:08:18.447Z,20.50
2018-03-04T07:10:47.107Z,23.50
2018-03-04T07:13:14.871Z,23.40
2018-03-04T07:15:42.637Z,24.00
2018-03-04T07:18:10.424Z,25.80
2018-03-04T07:20:38.957Z,26.50
2018-03-04T07:23:07.993Z,25.90
2018-03-04T07:25:36.237Z,25.90
2018-03-04T07:28:04.644Z,25.30
2018-03-04T07:30:32.511Z,26.10
2018-03-04T07:33:00.470Z,27.00
2018-03-04T07:35:28.530Z,27.10
2018-03-04T07:37:56.709Z,26.80
2018-03-04T07:40:24.675Z,26.70
2018-03-04T07:42:52.515Z,28.10
2018-03-04T07:45:20.482Z,28.80
2018-03-04T07:47:48.591Z,27.10
2018-03-04T07:50:16.733Z,26.60
2018-03-04T07:52:44.943Z,26.60
2018-03-04T07:55:12.914Z,26.90
2018-03-04T07:57:41.697Z,26.80
2018-03-04T08:00:09.657Z,26.70
2018-03-04T08:02:37.599Z,27.00
2018-03-04T08:05:05.523Z,26.60
2018-03-04T08:07:34.107Z,25.60
2018-03-04T08:10:02.835Z,25.50
2018-03-04T08:12:30.805Z,25.50
2018-03-04T08:14:58.807Z,25.40
2018-03-04T08:17:26.658Z,25.00
2018-03-04T08:19:54.767Z,24.40
2018-03-04T08:22:23.411Z,24.90
2018-03-04T08:25:03.179Z,24.80
2018-03-04T08:27:43.612Z,24.30
2018-03-04T08:30:11.404Z,24.30
2018-03-04T08:32:40.228Z,25.50
2018-03-04T08:35:07.988Z,25.50
2018-03-04T08:37:35.809Z,25.10
2018-03-04T08:40:03.656Z,24.40
2018-03-04T08:42:31.446Z,25.60
2018-03-04T08:44:59.317Z,23.90
2018-03-04T08:47:27.982Z,20.80
2018-03-04T08:49:55.953Z,20.70
2018-03-04T08:52:23.850Z,20.00
2018-03-04T08:54:52.504Z,18.70
2018-03-04T08:57:20.429Z,18.60
2018-03-04T08:59:48.330Z,18.00
2018-03-04T09:02:16.365Z,17.30
2018-03-04T09:04:44.310Z,16.80
2018-03-04T09:07:12.994Z,16.20
2018-03-04T09:09:40.967Z,16.10
2018-03-04T09:12:08.930Z,15.70
2018-03-04T09:14:36.793Z,15.70
2018-03-04T09:17:05.387Z,17.70
2018-03-04T09:19:33.155Z,17.70
2018-03-04T09:22:01.033Z,17.80
2018-03-04T09:24:28.849Z,17.80
2018-03-04T09:26:56.613Z,17.90
2018-03-04T09:29:24.379Z,17.60
2018-03-04T09:31:52.184Z,17.60
2018-03-04T09:34:20.011Z,17.50
2018-03-04T09:36:48.672Z,17.40
2018-03-04T09:39:16.468Z,17.40
2018-03-04T09:41:45.091Z,18.10
2018-03-04T09:44:12.920Z,18.10
2018-03-04T09:46:41.450Z,18.10
2018-03-04T09:49:09.305Z,18.10
2018-03-04T09:51:37.078Z,17.90
2018-03-04T09:54:04.937Z,18.10
2018-03-04T09:56:32.829Z,18.60
2018-03-04T09:59:00.657Z,18.70
2018-03-04T10:01:28.960Z,18.80
2018-03-04T10:03:56.792Z,19.20
2018-03-04T10:06:24.612Z,19.30
2018-03-04T10:08:52.469Z,18.80
2018-03-04T10:11:20.264Z,18.50
2018-03-04T10:13:48.831Z,19.60
2018-03-04T10:16:16.678Z,19.60
2018-03-04T10:18:44.499Z,21.00
2018-03-04T10:21:12.280Z,20.80
2018-03-04T10:23:40.181Z,21.20
2018-03-04T10:26:08.081Z,21.50
2018-03-04T10:28:35.860Z,22.30
2018-03-04T10:31:03.659Z,22.60
2018-03-04T10:33:31.404Z,23.00
2018-03-04T10:35:59.376Z,24.10
2018-03-04T10:38:27.185Z,24.40
2018-03-04T10:40:54.952Z,23.90
2018-03-04T10:43:23.523Z,23.10
2018-03-04T10:45:51.360Z,23.00
2018-03-04T10:48:19.239Z,23.50
2018-03-04T10:50:47.056Z,23.60
2018-03-04T10:53:14.851Z,22.60
2018-03-04T10:55:42.640Z,20.90
2018-03-04T10:58:10.476Z,20.10
2018-03-04T11:00:44.015Z,19.80
2018-03-04T11:03:11.884Z,20.30
2018-03-04T11:05:39.691Z,19.60
2018-03-04T11:08:07.552Z,19.80
2018-03-04T11:10:35.377Z,19.60
2018-03-04T11:13:04.024Z,19.80
2018-03-04T11:15:31.855Z,19.80
2018-03-04T11:17:59.733Z,19.20
2018-03-04T11:20:27.596Z,19.10
2018-03-04T11:22:55.483Z,19.10
2018-03-04T11:25:23.247Z,19.50
2018-03-04T11:27:51.087Z,19.20
2018-03-04T11:30:18.904Z,19.00
2018-03-04T11:32:46.692Z,19.00
2018-03-04T11:35:15.236Z,20.00
2018-03-04T11:37:43.009Z,20.00
2018-03-04T11:40:10.803Z,20.60
2018-03-04T11:42:38.567Z,21.70
2018-03-04T11:45:07.129Z,21.80
2018-03-04T11:47:34.928Z,21.70
2018-03-04T11:50:03.541Z,20.90
2018-03-04T11:52:31.332Z,20.90
2018-03-04T11:54:59.122Z,20.90
2018-03-04T11:57:27.711Z,21.00
2018-03-04T11:59:56.277Z,20.80
2018-03-04T12:02:24.058Z,20.80
2018-03-04T12:04:52.643Z,20.10
2018-03-04T12:07:21.223Z,19.90
2018-03-04T12:09:49.840Z,19.40
2018-03-04T12:12:17.604Z,19.40
2018-03-04T12:14:45.460Z,19.20
2018-03-04T12:17:13.260Z,19.60
2018-03-04T12:19:41.039Z,20.20
2018-03-04T12:22:08.867Z,20.90
2018-03-04T12:24:36.670Z,21.80
2018-03-04T12:27:04.447Z,23.00
2018-03-04T12:29:32.246Z,22.50
2018-03-04T12:32:00.080Z,22.40
2018-03-04T12:34:27.842Z,22.70
2018-03-04T12:36:55.634Z,21.40
2018-03-04T12:39:23.407Z,20.80
2018-03-04T12:41:51.214Z,20.60
2018-03-04T12:44:19.100Z,20.40
2018-03-04T12:46:46.875Z,20.80
2018-03-04T12:49:15.452Z,19.00
2018-03-04T12:51:44.048Z,19.10
2018-03-04T12:54:12.647Z,18.80
2018-03-04T12:56:40.458Z,18.80
2018-03-04T12:59:08.264Z,18.80
2018-03-04T13:01:36.813Z,18.60
2018-03-04T13:04:04.711Z,18.60
2018-03-04T13:06:33.295Z,18.40
2018-03-04T13:09:06.650Z,18.30
2018-03-04T13:11:35.576Z,18.30
2018-03-04T13:14:04.129Z,18.70
2018-03-04T13:16:31.920Z,18.70
2018-03-04T13:19:03.592Z,19.00
2018-03-04T13:24:04.513Z,18.10
2018-03-04T13:26:32.320Z,18.10
2018-03-04T13:29:00.185Z,17.90
2018-03-04T13:31:29.126Z,17.80
2018-03-04T13:33:59.604Z,17.60
2018-03-04T13:36:27.418Z,17.60
2018-03-04T13:38:55.437Z,17.40
2018-03-04T13:41:23.219Z,17.10
2018-03-04T13:43:51.032Z,17.10
2018-03-04T13:46:20.417Z,16.90
2018-03-04T13:51:21.891Z,16.90
2018-03-04T13:53:49.743Z,16.80
2018-03-04T13:56:18.380Z,17.30
2018-03-04T13:58:46.292Z,17.30
2018-03-04T14:01:14.093Z,17.10
2018-03-04T14:03:42.742Z,16.80
2018-03-04T14:06:10.589Z,16.70
2018-03-04T14:08:38.368Z,16.50
2018-03-04T14:11:06.212Z,16.50
2018-03-04T14:13:35.069Z,16.30
2018-03-04T14:16:02.986Z,16.00
2018-03-04T14:18:30.775Z,15.80
2018-03-04T14:20:58.599Z,15.60
2018-03-04T14:23:26.384Z,15.40
2018-03-04T14:25:54.189Z,15.00
2018-03-04T14:28:22.015Z,15.00
2018-03-04T14:30:49.812Z,14.80
2018-03-04T14:33:18.382Z,15.00
2018-03-04T14:35:46.184Z,14.90
2018-03-04T14:38:13.966Z,14.80
2018-03-04T14:40:41.791Z,14.80
2018-03-04T14:43:10.438Z,14.70
2018-03-04T14:48:12.948Z,14.30
2018-03-04T14:50:41.590Z,14.30
2018-03-04T14:53:09.401Z,14.30
2018-03-04T14:55:38.066Z,14.30
2018-03-04T14:58:05.875Z,14.30
2018-03-04T15:00:33.693Z,14.30
2018-03-04T15:03:01.532Z,14.20
2018-03-04T15:05:29.328Z,14.10
2018-03-04T15:07:57.112Z,14.00
2018-03-04T15:10:25.725Z,13.90
2018-03-04T15:12:53.528Z,13.80
2018-03-04T15:15:21.306Z,13.60
2018-03-04T15:17:49.108Z,13.70
2018-03-04T15:20:16.879Z,13.50
2018-03-04T15:22:44.680Z,13.50
2018-03-04T15:25:13.243Z,13.50
2018-03-04T15:27:41.043Z,13.50
2018-03-04T15:30:08.824Z,13.60
2018-03-04T15:32:37.392Z,13.50
2018-03-04T15:35:05.235Z,13.50
2018-03-04T15:37:33.057Z,13.50
2018-03-04T15:40:00.860Z,13.30
2018-03-04T15:42:28.676Z,13.20
2018-03-04T15:44:57.231Z,13.20
2018-03-04T15:47:25.096Z,13.20
2018-03-04T15:49:52.959Z,13.10
2018-03-04T15:52:20.803Z,13.10
2018-03-04T15:54:48.644Z,13.10
2018-03-04T15:57:16.473Z,13.00
2018-03-04T15:59:44.272Z,12.90
2018-03-04T16:02:12.152Z,12.90
2018-03-04T16:04:39.971Z,12.90
2018-03-04T16:07:08.584Z,12.80
2018-03-04T16:09:36.423Z,12.80
2018-03-04T16:12:04.992Z,12.70
2018-03-04T16:14:32.791Z,12.70
2018-03-04T16:17:00.711Z,12.70
2018-03-04T16:19:28.492Z,12.70
2018-03-04T16:21:57.081Z,12.60
2018-03-04T16:24:25.804Z,12.50
2018-03-04T16:26:53.708Z,12.50
2018-03-04T16:29:21.524Z,12.50
2018-03-04T16:31:49.325Z,12.50
2018-03-04T16:34:17.103Z,12.50
2018-03-04T16:36:44.922Z,12.50
2018-03-04T16:39:12.767Z,12.40
2018-03-04T16:41:40.664Z,12.40
2018-03-04T16:44:08.482Z,12.30
2018-03-04T16:46:37.053Z,12.30
2018-03-04T16:49:04.867Z,12.30
2018-03-04T16:51:32.653Z,12.30
2018-03-04T16:54:00.636Z,12.30
2018-03-04T16:56:28.431Z,12.20
2018-03-04T16:58:57.023Z,12.30
2018-03-04T17:01:24.819Z,12.30
2018-03-04T17:03:52.629Z,12.30
2018-03-04T17:06:20.414Z,12.20
2018-03-04T17:08:48.987Z,12.20
2018-03-04T17:11:17.651Z,12.30
2018-03-04T17:13:45.424Z,12.20
2018-03-04T17:16:13.238Z,12.20
2018-03-04T17:18:41.032Z,12.20
2018-03-04T17:21:08.887Z,12.10
2018-03-04T17:23:36.705Z,12.10
2018-03-04T17:26:05.252Z,12.20
2018-03-04T17:28:33.053Z,12.10
2018-03-04T17:31:01.659Z,12.20
2018-03-04T17:33:29.440Z,12.10
2018-03-04T17:35:57.257Z,12.10
2018-03-04T17:38:25.874Z,12.10
2018-03-04T17:40:53.676Z,12.10
2018-03-04T17:43:21.547Z,12.20
2018-03-04T17:45:49.419Z,12.20
2018-03-04T17:48:17.219Z,12.20
2018-03-04T17:50:45.774Z,12.20
2018-03-04T17:53:13.615Z,12.10
2018-03-04T17:55:41.806Z,12.20
2018-03-04T17:58:09.662Z,12.20
2018-03-04T18:00:37.448Z,12.20
2018-03-04T18:03:05.225Z,12.20
2018-03-04T18:05:33.775Z,12.10
2018-03-04T18:08:01.695Z,12.10
2018-03-04T18:10:29.480Z,12.10
2018-03-04T18:12:57.279Z,12.10
2018-03-04T18:15:25.060Z,12.10
2018-03-04T18:17:53.667Z,12.10
2018-03-04T18:20:21.595Z,12.10
2018-03-04T18:22:49.416Z,12.10
2018-03-04T18:25:17.300Z,12.10
2018-03-04T18:27:45.147Z,12.10
2018-03-04T18:30:12.933Z,12.10
2018-03-04T18:32:41.631Z,12.10
2018-03-04T18:35:09.452Z,12.00
2018-03-04T18:37:37.257Z,11.90
2018-03-04T18:40:05.092Z,12.00
2018-03-04T18:42:32.871Z,12.00
2018-03-04T18:45:00.664Z,12.00
2018-03-04T18:47:28.519Z,11.90
2018-03-04T18:49:56.345Z,11.90
2018-03-04T18:52:24.133Z,11.90
2018-03-04T18:54:51.998Z,11.90
2018-03-04T18:57:19.832Z,11.90
2018-03-04T18:59:47.659Z,11.90
2018-03-04T19:02:16.252Z,11.90
2018-03-04T19:04:44.828Z,11.90
2018-03-04T19:07:12.642Z,11.80
2018-03-04T19:09:41.264Z,11.80
2018-03-04T19:12:09.053Z,11.80
2018-03-04T19:14:37.660Z,11.80
2018-03-04T19:17:05.504Z,11.80
2018-03-04T19:19:34.084Z,11.80
2018-03-04T19:22:02.888Z,11.80
2018-03-04T19:24:30.744Z,11.80
2018-03-04T19:26:59.335Z,11.90
2018-03-04T19:29:27.177Z,11.90
2018-03-04T19:31:55.768Z,11.80
2018-03-04T19:34:24.314Z,11.80
2018-03-04T19:36:52.905Z,11.90
2018-03-04T19:39:21.361Z,11.90
2018-03-04T19:41:50.577Z,11.90
2018-03-04T19:44:18.370Z,11.90
2018-03-04T19:46:46.984Z,11.90
2018-03-04T19:49:14.815Z,11.90
2018-03-04T19:51:43.373Z,11.90
2018-03-04T19:54:11.171Z,11.90
2018-03-04T19:56:39.735Z,11.90
2018-03-04T19:59:08.325Z,11.90
2018-03-04T20:01:36.096Z,11.80
2018-03-04T20:04:04.689Z,11.90
2018-03-04T20:06:33.268Z,11.90
2018-03-04T20:09:01.837Z,11.90
2018-03-04T20:11:30.397Z,11.90
2018-03-04T20:13:58.245Z,11.90
2018-03-04T20:16:26.098Z,11.90
2018-03-04T20:18:54.044Z,11.90
2018-03-04T20:21:22.149Z,11.90
2018-03-04T20:23:50.145Z,11.90
2018-03-04T20:26:18.085Z,11.90
2018-03-04T20:28:46.043Z,11.80
2018-03-04T20:31:14.059Z,11.80
2018-03-04T20:33:42.073Z,11.80
2018-03-04T20:36:10.189Z,11.90
2018-03-04T20:38:38.255Z,11.90
2018-03-04T20:41:06.963Z,11.90
2018-03-04T20:43:35.582Z,11.90
2018-03-04T20:46:04.379Z,11.80
2018-03-04T20:48:32.285Z,11.90
2018-03-04T20:51:00.113Z,11.90
2018-03-04T20:53:28.151Z,11.90
2018-03-04T20:55:56.790Z,11.90
2018-03-04T20:58:24.700Z,11.80
2018-03-04T21:00:53.520Z,11.90
2018-03-04T21:03:21.715Z,11.90
2018-03-04T21:05:51.027Z,11.90
2018-03-04T21:08:19.440Z,11.90
2018-03-04T21:10:51.660Z,11.90
2018-03-04T21:13:22.224Z,11.90
2018-03-04T21:15:50.662Z,11.90
2018-03-04T21:18:18.784Z,11.90
2018-03-04T21:20:54.729Z,11.80
2018-03-04T21:23:23.111Z,11.80
2018-03-04T21:25:52.407Z,11.80
2018-03-04T21:28:21.957Z,11.80
2018-03-04T21:30:49.937Z,11.80
2018-03-04T21:33:18.157Z,11.80
2018-03-04T21:35:47.147Z,11.80
2018-03-04T21:38:19.501Z,11.90
2018-03-04T21:40:49.910Z,11.90
2018-03-04T21:43:18.430Z,11.80
2018-03-04T21:45:47.715Z,11.70
2018-03-04T21:48:15.756Z,11.70
2018-03-04T21:50:46.894Z,11.80
2018-03-04T21:53:15.373Z,11.80
2018-03-04T21:55:43.243Z,11.80
2018-03-04T21:58:11.315Z,11.80
2018-03-04T22:00:39.383Z,11.80
2018-03-04T22:03:07.350Z,11.80
2018-03-04T22:05:35.597Z,11.90
2018-03-04T22:08:03.792Z,11.80
2018-03-04T22:10:31.724Z,11.80
2018-03-04T22:13:00.489Z,11.80
2018-03-04T22:15:28.695Z,11.80
2018-03-04T22:17:57.415Z,11.80
2018-03-04T22:20:25.369Z,11.80
2018-03-04T22:22:53.353Z,11.80
2018-03-04T22:25:21.325Z,11.90
2018-03-04T22:27:49.218Z,11.80
2018-03-04T22:30:23.087Z,11.90
2018-03-04T22:32:51.326Z,11.80
2018-03-04T22:35:22.007Z,11.80
2018-03-04T22:37:52.705Z,11.80
2018-03-04T22:40:24.312Z,11.80
2018-03-04T22:42:52.658Z,11.80
2018-03-04T22:45:22.139Z,11.80
2018-03-04T22:47:50.060Z,11.80
2018-03-04T22:50:24.952Z,11.90
2018-03-04T22:52:55.104Z,11.90
2018-03-04T22:55:24.864Z,11.90
2018-03-04T22:57:57.025Z,11.90
2018-03-04T23:00:29.700Z,11.90
2018-03-04T23:03:01.522Z,12.00
2018-03-04T23:05:31.632Z,12.00
2018-03-04T23:11:00.582Z,12.10
2018-03-04T23:18:25.637Z,12.10
2018-03-04T23:21:05.837Z,12.10
2018-03-04T23:27:53.497Z,12.10
2018-03-04T23:30:30.302Z,12.20
2018-03-04T23:33:20.349Z,12.20
2018-03-04T23:35:57.033Z,12.20
2018-03-04T23:41:23.686Z,12.20
2018-03-04T23:44:15.044Z,12.20
2018-03-04T23:49:24.182Z,12.20
2018-03-04T23:51:52.487Z,12.20
2018-03-04T23:54:21.181Z,12.10
2018-03-04T23:56:51.698Z,12.10
2018-03-04T23:59:23.182Z,12.10
